Time;durP1;ratioP1;P1;durP2;ratioP2;P2;SDS_P1;SDS_P2;PMS_P1;PMS_P2;Temp;Humidity;BMP_temperature;BMP_pressure;BME280_temperature;BME280_humidity;BME280_pressure;Samples;Min_cycle;Max_cycle;Signal;HPM_P1;HPM_P2
2021/07/29 02:32:41;;;;;;;8.63;2.45;;;;;;;11.93;82.13;100439.56;4897807;29;20051;-83
2021/07/29 02:35:07;;;;;;;5.95;2.40;;;;;;;11.94;82.27;100439.38;4897923;29;20032;-84
2021/07/29 02:37:33;;;;;;;6.20;2.60;;;;;;;11.96;82.58;100442.72;4883245;29;20041;-83
2021/07/29 02:39:58;;;;;;;7.07;2.42;;;;;;;11.88;82.65;100418.59;4928680;29;20064;-83
2021/07/29 02:42:23;;;;;;;10.30;2.28;;;;;;;11.98;82.39;100443.34;4900327;29;20036;-82
2021/07/29 02:44:49;;;;;;;8.40;2.50;;;;;;;11.96;82.88;100436.47;4898962;29;21561;-82
2021/07/29 02:47:15;;;;;;;5.85;2.03;;;;;;;11.94;82.82;100430.47;4898475;29;20086;-82
2021/07/29 02:49:40;;;;;;;6.45;2.10;;;;;;;11.95;83.20;100435.66;4897039;29;20032;-83
2021/07/29 02:52:06;;;;;;;7.57;1.80;;;;;;;11.93;82.87;100424.22;4924877;29;20036;-83
2021/07/29 02:54:32;;;;;;;10.30;2.65;;;;;;;12.01;83.08;100431.34;4896659;29;20093;-83
2021/07/29 02:56:57;;;;;;;4.07;1.77;;;;;;;11.98;82.90;100432.56;4882166;29;20379;-84
2021/07/29 02:59:22;;;;;;;7.45;2.03;;;;;;;12.01;83.08;100437.59;4883402;29;20203;-83
2021/07/29 03:01:48;;;;;;;5.07;2.15;;;;;;;12.00;83.11;100432.38;4898248;29;20029;-82
2021/07/29 03:04:14;;;;;;;6.78;2.20;;;;;;;11.95;83.42;100418.66;4899269;29;20420;-83
2021/07/29 03:06:39;;;;;;;6.03;2.17;;;;;;;11.98;83.26;100427.19;4898000;29;20037;-82
2021/07/29 03:09:05;;;;;;;7.07;2.00;;;;;;;11.95;83.24;100419.50;4898368;29;20103;-83
2021/07/29 03:11:30;;;;;;;7.78;2.20;;;;;;;12.07;83.28;100438.69;4894772;29;20039;-82
2021/07/29 03:13:56;;;;;;;5.22;1.88;;;;;;;11.96;83.49;100423.00;4898008;29;20035;-83
2021/07/29 03:16:21;;;;;;;5.50;1.85;;;;;;;11.98;83.01;100420.97;4895623;29;21957;-83
2021/07/29 03:18:47;;;;;;;6.80;2.10;;;;;;;12.06;83.31;100434.31;4895811;29;20036;-83
2021/07/29 03:21:12;;;;;;;4.38;1.80;;;;;;;12.09;83.10;100437.47;4872306;29;20028;-81
2021/07/29 03:23:38;;;;;;;7.35;2.05;;;;;;;12.02;83.12;100419.56;4892808;29;20040;-83
2021/07/29 03:26:04;;;;;;;4.13;1.80;;;;;;;12.11;83.06;100439.94;4874144;29;20097;-83
2021/07/29 03:28:30;;;;;;;6.65;2.22;;;;;;;12.02;83.74;100435.72;4893141;29;20025;-83
2021/07/29 03:30:55;;;;;;;8.63;2.00;;;;;;;12.00;83.43;100443.16;4877665;29;20084;-83
2021/07/29 03:33:21;;;;;;;7.97;2.03;;;;;;;11.99;83.57;100436.94;4888861;29;20466;-81
2021/07/29 03:35:47;;;;;;;8.57;2.30;;;;;;;11.76;83.59;100404.78;4893214;29;20032;-83
2021/07/29 03:38:13;;;;;;;5.70;2.30;;;;;;;11.98;83.56;100447.91;4907479;29;20420;-81
2021/07/29 03:40:39;;;;;;;5.47;1.98;;;;;;;11.96;83.61;100453.50;4925862;28;20040;-85
2021/07/29 03:43:07;;;;;;;7.38;2.05;;;;;;;11.91;84.16;100441.63;4898931;29;20079;-82
2021/07/29 03:45:33;;;;;;;5.20;1.88;;;;;;;11.88;83.63;100442.84;4895055;29;20669;-82
2021/07/29 03:47:59;;;;;;;5.72;2.13;;;;;;;11.82;83.78;100428.25;4894197;29;20052;-84
2021/07/29 03:50:25;;;;;;;5.22;1.80;;;;;;;11.93;83.89;100450.34;4880713;29;20064;-82
2021/07/29 03:52:51;;;;;;;9.68;2.40;;;;;;;11.87;83.69;100447.38;4899364;29;20788;-83
2021/07/29 03:55:17;;;;;;;5.82;2.00;;;;;;;11.84;84.23;100445.06;4894886;29;20707;-83
2021/07/29 03:57:42;;;;;;;6.20;2.10;;;;;;;11.75;83.98;100457.00;4896126;29;20020;-82
2021/07/29 04:00:09;;;;;;;5.15;2.00;;;;;;;11.66;84.37;100450.88;4883858;29;20024;-84
2021/07/29 04:02:34;;;;;;;8.35;2.72;;;;;;;11.68;84.33;100458.78;4895057;29;20081;-84
2021/07/29 04:05:00;;;;;;;10.13;2.40;;;;;;;11.55;84.46;100447.84;4895476;29;20024;-81
2021/07/29 04:07:26;;;;;;;6.00;2.10;;;;;;;11.55;84.87;100455.94;4895784;29;20025;-82
2021/07/29 04:09:51;;;;;;;4.07;2.05;;;;;;;11.49;85.13;100451.31;4895995;29;20397;-84
2021/07/29 04:12:17;;;;;;;4.25;2.22;;;;;;;11.43;85.34;100448.34;4884046;29;20042;-81
2021/07/29 04:14:43;;;;;;;6.45;2.17;;;;;;;11.48;85.61;100449.63;4883900;29;20063;-82
2021/07/29 04:17:09;;;;;;;9.25;2.15;;;;;;;11.30;85.64;100432.03;4896283;29;20067;-84
2021/07/29 04:19:35;;;;;;;6.22;2.63;;;;;;;11.41;85.71;100458.47;4895670;29;20669;-82
2021/07/29 04:22:01;;;;;;;10.10;3.10;;;;;;;11.34;85.74;100440.56;4899768;29;20028;-83
2021/07/29 04:24:28;;;;;;;9.32;2.60;;;;;;;11.42;86.28;100449.34;4899417;29;20043;-82
2021/07/29 04:26:54;;;;;;;7.95;2.90;;;;;;;11.36;86.21;100431.28;4906053;29;20119;-82
2021/07/29 04:29:20;;;;;;;5.82;2.47;;;;;;;11.38;86.19;100429.22;4930113;29;20032;-83
2021/07/29 04:31:45;;;;;;;9.88;2.40;;;;;;;11.47;86.62;100439.88;4902040;29;20132;-82
2021/07/29 04:34:11;;;;;;;7.63;2.00;;;;;;;11.45;86.21;100426.59;4907674;29;20417;-82
2021/07/29 04:36:40;;;;;;;4.93;2.10;;;;;;;11.56;86.05;100438.75;4902370;29;20028;-82
2021/07/29 04:39:06;;;;;;;5.30;2.20;;;;;;;11.58;86.09;100442.91;4887151;29;20551;-82
2021/07/29 04:41:32;;;;;;;7.40;2.25;;;;;;;11.63;85.94;100447.72;4912463;29;20036;-82
2021/07/29 04:43:58;;;;;;;4.88;1.90;;;;;;;11.64;85.81;100446.69;4898097;29;20059;-82
2021/07/29 04:46:23;;;;;;;6.28;2.33;;;;;;;11.59;85.17;100430.28;4883677;29;20493;-82
2021/07/29 04:48:49;;;;;;;5.85;2.25;;;;;;;11.69;85.61;100438.88;4900200;29;20400;-83
2021/07/29 04:51:14;;;;;;;7.80;2.17;;;;;;;11.69;85.25;100438.06;4900000;29;20115;-83
2021/07/29 04:53:40;;;;;;;7.45;2.40;;;;;;;11.66;85.76;100432.00;4902022;29;20035;-83
2021/07/29 04:56:05;;;;;;;8.30;2.38;;;;;;;11.63;85.76;100431.56;4902394;29;20036;-83
2021/07/29 04:58:30;;;;;;;3.35;1.85;;;;;;;11.75;85.79;100445.34;4902519;29;20576;-83
2021/07/29 05:00:56;;;;;;;5.68;2.20;;;;;;;11.73;85.46;100439.34;4888280;29;20492;-83
2021/07/29 05:03:24;;;;;;;6.15;1.92;;;;;;;11.78;85.47;100445.81;4884911;29;20108;-83
2021/07/29 05:05:49;;;;;;;6.35;2.40;;;;;;;11.73;85.60;100444.75;4903664;29;20088;-82
2021/07/29 05:08:15;;;;;;;4.28;2.03;;;;;;;11.70;85.28;100443.25;4887566;29;20093;-83
2021/07/29 05:10:40;;;;;;;7.57;2.22;;;;;;;11.61;85.58;100433.63;4887311;29;20028;-83
2021/07/29 05:13:06;;;;;;;5.20;1.98;;;;;;;11.74;85.45;100452.59;4903901;29;20039;-84
2021/07/29 05:15:31;;;;;;;6.05;2.95;;;;;;;11.74;85.26;100455.31;4902572;29;20855;-83
2021/07/29 05:17:56;;;;;;;7.70;2.20;;;;;;;11.79;85.48;100452.88;4884386;29;20035;-82
2021/07/29 05:20:22;;;;;;;6.55;2.25;;;;;;;11.82;85.51;100457.88;4886402;29;20029;-82
2021/07/29 05:22:48;;;;;;;7.40;2.15;;;;;;;11.86;85.43;100453.81;4901929;29;20026;-82
2021/07/29 05:25:22;;;;;;;9.32;2.10;;;;;;;11.89;85.46;100455.28;4895685;29;20027;-82
2021/07/29 05:27:47;;;;;;;;;;;;;;;11.94;85.02;100452.84;4888120;29;20034;-83
2021/07/29 05:30:12;;;;;;;6.40;2.00;;;;;;;11.92;84.97;100448.69;4883583;29;19919;-82
2021/07/29 05:32:38;;;;;;;7.45;2.35;;;;;;;11.88;84.87;100437.44;4901871;29;20093;-82
2021/07/29 05:35:04;;;;;;;6.65;2.03;;;;;;;11.86;84.75;100439.53;4904182;29;20093;-82
2021/07/29 05:37:29;;;;;;;8.18;2.30;;;;;;;11.83;84.67;100437.19;4883201;29;20035;-82
2021/07/29 05:39:54;;;;;;;7.75;2.17;;;;;;;11.98;84.77;100456.00;4898615;29;20032;-82
2021/07/29 05:42:23;;;;;;;5.30;1.98;;;;;;;11.94;84.93;100452.84;4899145;29;20043;-83
2021/07/29 05:44:48;;;;;;;9.45;2.35;;;;;;;11.92;85.33;100451.38;4902048;29;20036;-83
2021/07/29 05:47:14;;;;;;;8.23;2.78;;;;;;;11.88;85.59;100457.16;4898088;29;20032;-82
2021/07/29 05:49:39;;;;;;;7.63;2.20;;;;;;;11.90;84.88;100464.19;4898756;29;20448;-83
2021/07/29 05:52:05;;;;;;;8.90;2.33;;;;;;;11.81;85.40;100445.44;4900715;29;20429;-83
2021/07/29 05:54:30;;;;;;;10.30;2.38;;;;;;;11.92;85.10;100467.56;4898639;29;20052;-83
2021/07/29 05:56:56;;;;;;;9.40;2.65;;;;;;;11.79;84.92;100442.09;4929091;29;20032;-82
2021/07/29 05:59:21;;;;;;;5.10;2.33;;;;;;;11.94;85.00;100462.81;4896730;29;20039;-83
2021/07/29 06:01:46;;;;;;;8.82;2.33;;;;;;;11.90;84.64;100451.56;4898108;29;20036;-83
2021/07/29 06:04:12;;;;;;;8.77;2.22;;;;;;;11.83;85.01;100458.72;4898070;29;20044;-83
2021/07/29 06:06:37;;;;;;;7.97;2.33;;;;;;;11.81;85.30;100460.78;4897892;29;20037;-82
2021/07/29 06:09:03;;;;;;;7.93;2.60;;;;;;;11.77;85.46;100451.41;4898902;29;20024;-82
2021/07/29 06:11:28;;;;;;;5.32;2.30;;;;;;;11.77;85.57;100451.41;4882578;29;20037;-82
2021/07/29 06:13:54;;;;;;;4.50;1.77;;;;;;;11.87;85.73;100460.88;4899656;29;20028;-83
2021/07/29 06:16:19;;;;;;;5.78;2.45;;;;;;;11.94;85.38;100450.16;4888653;29;20036;-83
2021/07/29 06:18:58;;;;;;;10.10;2.13;;;;;;;11.99;85.30;100453.13;4882720;29;20442;-82
2021/07/29 06:21:24;;;;;;;4.78;1.90;;;;;;;12.01;85.32;100451.06;4897643;29;20032;-82
2021/07/29 06:23:49;;;;;;;8.85;2.17;;;;;;;11.91;85.08;100434.38;4896366;29;20024;-82
2021/07/29 06:26:14;;;;;;;9.38;2.28;;;;;;;12.12;85.21;100468.59;4887159;29;20043;-82
2021/07/29 06:28:40;;;;;;;6.93;2.30;;;;;;;12.10;85.03;100458.00;4893771;29;20028;-83
2021/07/29 06:31:07;;;;;;;8.60;2.40;;;;;;;11.92;85.01;100421.75;4902046;29;20126;-83
2021/07/29 06:33:32;;;;;;;6.88;2.42;;;;;;;12.18;85.13;100457.03;4897125;29;20036;-83
2021/07/29 06:36:00;;;;;;;4.40;2.13;;;;;;;12.29;84.81;100474.53;4882709;29;20024;-83
2021/07/29 06:38:26;;;;;;;9.27;2.50;;;;;;;12.32;84.68;100469.56;4897252;29;20788;-83
2021/07/29 06:40:51;;;;;;;7.70;2.25;;;;;;;12.33;84.58;100465.00;4895970;29;20044;-83
2021/07/29 06:43:17;;;;;;;8.52;3.20;;;;;;;12.40;84.79;100459.69;4896998;29;20051;-83
2021/07/29 06:45:42;;;;;;;3.78;1.75;;;;;;;12.57;84.57;100471.00;4894993;29;20037;-83
2021/07/29 06:48:07;;;;;;;4.55;2.25;;;;;;;12.59;84.77;100469.78;4910265;29;20405;-83
2021/07/29 06:50:33;;;;;;;8.00;2.95;;;;;;;12.62;84.39;100466.72;4901293;29;20163;-82
2021/07/29 06:52:58;;;;;;;10.20;2.03;;;;;;;12.63;84.27;100460.28;4882161;29;20032;-82
2021/07/29 06:55:24;;;;;;;5.07;2.05;;;;;;;12.73;84.29;100465.34;4892539;29;20095;-82
2021/07/29 06:57:49;;;;;;;5.90;1.92;;;;;;;12.83;83.79;100478.47;4895917;29;20028;-83
2021/07/29 07:00:16;;;;;;;7.90;2.38;;;;;;;12.87;84.04;100471.66;4909412;29;20032;-83
2021/07/29 07:02:41;;;;;;;3.83;2.00;;;;;;;12.91;83.91;100471.06;4895699;29;20518;-83
2021/07/29 07:05:07;;;;;;;4.82;2.60;;;;;;;12.94;84.15;100461.75;4879984;29;20139;-83
2021/07/29 07:07:32;;;;;;;7.85;2.50;;;;;;;13.11;83.52;100473.03;4893419;29;20115;-83
2021/07/29 07:09:58;;;;;;;9.43;2.60;;;;;;;13.23;83.67;100474.16;4903257;29;20124;-82
2021/07/29 07:12:23;;;;;;;6.80;2.05;;;;;;;13.12;82.95;100448.53;4899449;29;20025;-83
2021/07/29 07:14:49;;;;;;;12.07;2.40;;;;;;;13.36;82.78;100478.78;4894750;29;20024;-83
2021/07/29 07:17:14;;;;;;;9.10;2.33;;;;;;;13.44;83.02;100484.00;4883432;29;20087;-82
2021/07/29 07:19:40;;;;;;;8.30;2.20;;;;;;;13.35;82.46;100469.88;4885536;29;20150;-83
2021/07/29 07:22:06;;;;;;;7.10;2.35;;;;;;;13.39;82.88;100473.00;4896896;29;20036;-83
2021/07/29 07:24:36;;;;;;;3.72;1.85;;;;;;;13.52;82.65;100480.31;4898618;29;20036;-84
2021/07/29 07:27:05;;;;;;;6.32;2.25;;;;;;;13.63;82.45;100487.84;4898096;29;20048;-83
2021/07/29 07:29:34;;;;;;;6.68;2.22;;;;;;;13.68;81.84;100495.34;4894745;29;20020;-83
2021/07/29 07:31:59;;;;;;;5.07;2.08;;;;;;;13.71;82.23;100492.25;4895126;29;20455;-83
2021/07/29 07:34:25;;;;;;;5.97;1.92;;;;;;;13.59;81.82;100470.38;4898491;29;20052;-83
2021/07/29 07:36:50;;;;;;;6.85;2.10;;;;;;;13.78;81.65;100493.09;4898501;29;21536;-83
2021/07/29 07:39:16;;;;;;;7.55;3.00;;;;;;;13.82;81.63;100483.53;4897918;29;20111;-82
2021/07/29 07:41:41;;;;;;;6.55;2.20;;;;;;;13.91;81.34;100498.53;4897014;29;20041;-83
2021/07/29 07:44:10;;;;;;;9.63;2.60;;;;;;;13.94;80.85;100498.09;4922359;29;20033;-82
2021/07/29 07:46:36;;;;;;;6.40;2.78;;;;;;;13.97;80.35;100503.13;4878335;29;20036;-83
2021/07/29 07:49:01;;;;;;;4.60;2.17;;;;;;;13.98;80.79;100499.38;4894407;29;20033;-83
2021/07/29 07:51:28;;;;;;;4.88;2.42;;;;;;;14.02;80.62;100492.50;4895056;29;20413;-82
2021/07/29 07:53:54;;;;;;;7.70;2.15;;;;;;;14.05;80.77;100491.28;4876655;29;20043;-83
2021/07/29 07:56:22;;;;;;;6.80;3.30;;;;;;;14.06;80.54;100482.97;4887175;29;20036;-83
2021/07/29 07:58:47;;;;;;;4.72;2.33;;;;;;;14.15;80.18;100488.19;4877625;29;20052;-82
2021/07/29 08:01:14;;;;;;;6.18;1.75;;;;;;;14.22;80.30;100494.44;4874774;29;20056;-81
2021/07/29 08:03:40;;;;;;;3.97;2.00;;;;;;;14.29;79.82;100492.59;4890031;29;20032;-82
2021/07/29 08:06:05;;;;;;;7.85;2.08;;;;;;;14.34;79.49;100483.81;4894145;29;20107;-82
2021/07/29 08:08:31;;;;;;;3.35;1.80;;;;;;;14.53;79.36;100499.28;4873496;29;20482;-82
2021/07/29 08:10:56;;;;;;;6.72;2.03;;;;;;;14.44;78.85;100484.25;4887922;29;20462;-82
2021/07/29 08:13:22;;;;;;;4.65;1.98;;;;;;;14.57;78.54;100488.84;4891702;29;20052;-84
2021/07/29 08:15:47;;;;;;;5.80;2.08;;;;;;;14.71;78.37;100506.75;4883796;29;20047;-83
2021/07/29 08:18:13;;;;;;;7.50;2.30;;;;;;;14.80;78.16;100497.38;4885181;29;20024;-83
2021/07/29 08:20:42;;;;;;;3.72;2.00;;;;;;;14.95;78.11;100494.44;4898711;29;20033;-81
2021/07/29 08:23:08;;;;;;;5.07;1.92;;;;;;;15.13;77.79;100504.59;4879527;29;21765;-83
2021/07/29 08:25:33;;;;;;;5.38;2.20;;;;;;;15.21;77.37;100511.66;4920391;29;20048;-80
2021/07/29 08:27:59;;;;;;;6.43;2.28;;;;;;;15.28;76.97;100507.91;4875433;29;20033;-82
2021/07/29 08:30:24;;;;;;;8.82;2.20;;;;;;;15.31;76.21;100502.06;4896551;29;21771;-84
2021/07/29 08:32:50;;;;;;;4.75;1.95;;;;;;;15.32;75.57;100505.59;4915396;29;20051;-83
2021/07/29 08:35:15;;;;;;;5.85;2.00;;;;;;;15.42;74.79;100513.28;4895382;29;20060;-83
2021/07/29 08:37:47;;;;;;;4.20;2.20;;;;;;;15.44;74.41;100512.03;4897546;29;20029;-84
2021/07/29 08:40:17;;;;;;;6.30;1.75;;;;;;;15.49;74.06;100508.69;4896385;29;20029;-84
2021/07/29 08:42:43;;;;;;;5.88;1.88;;;;;;;15.50;73.35;100511.16;4896620;29;20032;-83
2021/07/29 08:45:09;;;;;;;5.22;1.67;;;;;;;15.55;73.84;100508.63;4896803;29;20964;-84
2021/07/29 08:47:35;;;;;;;5.80;2.00;;;;;;;15.53;73.04;100502.63;4897662;29;20068;-84
2021/07/29 08:50:04;;;;;;;3.20;1.52;;;;;;;15.59;72.64;100509.06;4900935;29;20060;-84
2021/07/29 08:52:29;;;;;;;11.00;1.90;;;;;;;15.60;71.85;100521.56;4897094;29;20033;-83
2021/07/29 08:54:55;;;;;;;7.18;1.60;;;;;;;15.59;71.29;100514.47;4900440;29;20033;-82
2021/07/29 08:57:26;;;;;;;5.13;1.67;;;;;;;15.68;70.79;100513.19;4894719;29;20028;-84
2021/07/29 08:59:51;;;;;;;7.68;2.13;;;;;;;15.59;70.32;100485.50;4876954;29;20028;-82
2021/07/29 09:02:27;;;;;;;4.03;1.80;;;;;;;15.78;70.20;100502.75;4895336;29;20040;-83
2021/07/29 09:05:15;;;;;;;4.25;1.83;;;;;;;15.79;69.75;100504.38;4880839;29;20063;-84
2021/07/29 09:07:42;;;;;;;2.95;1.55;;;;;;;15.85;69.44;100501.84;4894401;29;20029;-84
2021/07/29 09:10:19;;;;;;;4.63;2.13;;;;;;;15.95;69.54;100500.34;4895228;29;20047;-83
2021/07/29 09:12:45;;;;;;;9.90;2.00;;;;;;;16.02;68.97;100492.19;4892958;29;20032;-84
2021/07/29 09:15:20;;;;;;;5.20;2.13;;;;;;;16.24;68.53;100496.19;4894922;29;20033;-83
2021/07/29 09:17:46;;;;;;;7.38;1.75;;;;;;;16.38;68.38;100487.94;4907377;29;20043;-84
2021/07/29 09:20:19;;;;;;;4.15;1.98;;;;;;;16.71;66.81;100496.66;4891942;29;20032;-84
2021/07/29 09:22:47;;;;;;;9.05;2.08;;;;;;;16.68;66.19;100475.38;4880505;29;20088;-86
2021/07/29 09:25:13;;;;;;;4.20;2.03;;;;;;;16.69;65.25;100478.91;4928879;29;20071;-83
2021/07/29 09:27:38;;;;;;;4.95;1.70;;;;;;;16.70;65.61;100497.72;4901579;29;20029;-82
2021/07/29 09:30:15;;;;;;;2.30;1.40;;;;;;;16.75;65.89;100491.63;4896770;29;20105;-82
2021/07/29 09:33:07;;;;;;;4.88;1.50;;;;;;;16.81;65.15;100496.19;4907207;29;20160;-82
2021/07/29 09:35:35;;;;;;;2.88;1.40;;;;;;;16.79;64.26;100487.44;4901927;29;20024;-82
2021/07/29 09:38:02;;;;;;;4.03;1.40;;;;;;;16.75;64.15;100496.19;4902428;29;20021;-83
2021/07/29 09:40:40;;;;;;;2.67;1.50;;;;;;;16.68;63.89;100464.53;4897517;29;20465;-83
2021/07/29 09:43:11;;;;;;;4.32;1.55;;;;;;;16.75;63.38;100475.34;4895873;29;20163;-83
2021/07/29 09:45:38;;;;;;;6.40;1.73;;;;;;;16.88;63.50;100479.81;4896928;29;20028;-83
2021/07/29 09:48:08;;;;;;;4.90;1.83;;;;;;;16.84;63.88;100465.03;4887236;29;20743;-82
2021/07/29 09:50:35;;;;;;;3.78;1.40;;;;;;;16.85;64.18;100467.50;4895080;29;20036;-82
2021/07/29 09:53:01;;;;;;;5.85;1.70;;;;;;;16.99;64.41;100475.53;4902680;29;20544;-83
2021/07/29 09:55:30;;;;;;;3.70;1.50;;;;;;;17.04;64.07;100465.66;4903202;29;20104;-82
2021/07/29 09:57:56;;;;;;;3.97;1.38;;;;;;;17.23;63.78;100476.53;4886572;29;20031;-82
2021/07/29 10:00:22;;;;;;;3.17;1.35;;;;;;;17.33;62.70;100474.09;4897550;29;20508;-82
2021/07/29 10:02:47;;;;;;;4.72;1.70;;;;;;;17.49;62.87;100468.06;4904825;29;20041;-82
2021/07/29 10:05:18;;;;;;;6.97;1.55;;;;;;;17.57;61.97;100461.47;4888198;29;20033;-82
2021/07/29 10:07:47;;;;;;;2.70;1.42;;;;;;;17.74;60.46;100458.94;4912758;29;20035;-83
2021/07/29 10:10:16;;;;;;;3.17;1.35;;;;;;;17.98;59.99;100454.47;4893614;29;20037;-82
2021/07/29 10:12:46;;;;;;;4.63;1.50;;;;;;;18.13;59.54;100457.56;4911481;29;20025;-82
2021/07/29 10:15:11;;;;;;;2.75;1.30;;;;;;;18.07;58.89;100447.59;4882400;29;20032;-82
2021/07/29 10:17:37;;;;;;;5.53;1.50;;;;;;;18.04;58.56;100455.41;4900344;29;20040;-83
2021/07/29 10:20:11;;;;;;;6.43;1.63;;;;;;;17.87;59.14;100458.78;4899220;29;20039;-82
2021/07/29 10:22:37;;;;;;;3.70;1.42;;;;;;;17.74;58.90;100450.78;4902284;29;20039;-83
2021/07/29 10:25:03;;;;;;;3.67;1.77;;;;;;;17.79;59.15;100459.94;4902649;29;20036;-82
2021/07/29 10:27:28;;;;;;;3.33;1.30;;;;;;;17.87;58.52;100450.63;4901016;29;20033;-82
2021/07/29 10:30:19;;;;;;;3.22;1.40;;;;;;;18.24;58.31;100458.66;4899224;29;20029;-82
2021/07/29 10:32:50;;;;;;;4.07;1.30;;;;;;;18.46;57.86;100453.47;4895378;29;20724;-83
2021/07/29 10:35:30;;;;;;;3.10;1.70;;;;;;;18.83;55.96;100459.56;4893287;29;20033;-83
2021/07/29 10:37:59;;;;;;;4.40;1.50;;;;;;;19.10;55.57;100454.44;4902631;29;20032;-83
2021/07/29 10:40:32;;;;;;;7.85;1.92;;;;;;;19.21;55.15;100443.75;4876788;29;20025;-82
2021/07/29 10:43:24;;;;;;;3.72;1.60;;;;;;;19.46;53.90;100452.44;4920362;29;20060;-83
2021/07/29 10:45:56;;;;;;;4.22;1.20;;;;;;;19.52;53.35;100445.19;4896215;29;20024;-82
2021/07/29 10:48:47;;;;;;;2.92;1.52;;;;;;;19.71;52.31;100443.97;4907062;29;20040;-83
2021/07/29 10:51:13;;;;;;;5.47;1.63;;;;;;;19.86;51.92;100448.06;4904564;29;20044;-81
2021/07/29 10:53:43;;;;;;;4.65;1.70;;;;;;;20.17;51.05;100433.06;4901265;29;20485;-83
2021/07/29 10:56:15;;;;;;;3.80;1.48;;;;;;;20.47;51.75;100442.81;4907127;29;20064;-83
2021/07/29 10:58:42;;;;;;;2.90;1.30;;;;;;;20.66;50.51;100437.94;4906272;29;20085;-82
2021/07/29 11:01:10;;;;;;;4.03;1.77;;;;;;;20.73;49.87;100442.16;4883598;29;20036;-83
2021/07/29 11:04:13;;;;;;;4.38;1.20;;;;;;;20.80;48.80;100436.53;4900057;29;20024;-81
2021/07/29 11:06:38;;;;;;;4.85;1.83;;;;;;;20.86;48.96;100433.59;4891981;29;20070;-83
2021/07/29 11:09:15;;;;;;;6.47;1.63;;;;;;;21.08;48.16;100430.06;4921536;29;20450;-83
2021/07/29 11:11:42;;;;;;;3.22;1.50;;;;;;;21.00;48.05;100431.31;4900885;29;20033;-81
2021/07/29 11:14:07;;;;;;;6.53;2.00;;;;;;;20.70;48.17;100417.25;4902525;29;20028;-80
2021/07/29 11:16:34;;;;;;;5.50;1.40;;;;;;;20.37;48.37;100424.34;4903426;29;20048;-83
2021/07/29 11:19:05;;;;;;;5.32;1.70;;;;;;;19.94;49.58;100429.38;4901371;29;20053;-82
2021/07/29 11:21:33;;;;;;;2.25;1.48;;;;;;;19.55;50.38;100418.28;4898900;29;20057;-83
2021/07/29 11:23:59;;;;;;;2.63;1.30;;;;;;;19.58;50.61;100427.03;4903353;29;20036;-83
2021/07/29 11:26:25;;;;;;;3.70;1.40;;;;;;;19.59;49.53;100424.06;4904191;29;20036;-82
2021/07/29 11:29:07;;;;;;;3.08;1.35;;;;;;;19.60;49.09;100420.25;4883166;29;20091;-83
2021/07/29 11:31:37;;;;;;;3.33;1.73;;;;;;;19.69;49.32;100410.66;4878796;29;20033;-83
2021/07/29 11:34:03;;;;;;;3.33;1.55;;;;;;;19.99;49.57;100425.91;4887113;29;20041;-83
2021/07/29 11:36:29;;;;;;;4.15;1.50;;;;;;;20.04;49.57;100414.28;4902436;29;20031;-83
2021/07/29 11:39:00;;;;;;;4.28;1.60;;;;;;;20.07;48.44;100425.50;4894724;29;20465;-83
2021/07/29 11:41:29;;;;;;;5.07;1.50;;;;;;;20.02;48.10;100425.44;4898559;29;20481;-83
2021/07/29 11:43:56;;;;;;;5.22;1.90;;;;;;;19.98;48.28;100413.38;4895794;29;20508;-83
2021/07/29 11:46:22;;;;;;;5.18;1.40;;;;;;;19.95;48.30;100424.75;4877445;29;20112;-83
2021/07/29 11:48:47;;;;;;;4.15;1.60;;;;;;;19.95;49.33;100427.47;4879115;29;20416;-83
2021/07/29 11:51:17;;;;;;;3.38;1.70;;;;;;;20.01;47.70;100418.31;4900152;29;20135;-83
2021/07/29 11:53:44;;;;;;;6.50;1.75;;;;;;;20.02;47.73;100414.50;4888724;29;20028;-83
2021/07/29 11:56:11;;;;;;;5.05;1.83;;;;;;;20.14;48.23;100409.81;4885490;29;20032;-83
2021/07/29 11:58:38;;;;;;;5.65;1.70;;;;;;;20.36;48.94;100411.78;4899291;29;20494;-83
2021/07/29 12:01:11;;;;;;;4.47;1.75;;;;;;;20.26;48.85;100408.91;4901282;29;20373;-83
2021/07/29 12:03:47;;;;;;;3.30;1.70;;;;;;;20.00;49.50;100416.66;4906752;29;20120;-83
2021/07/29 12:06:14;;;;;;;4.35;1.77;;;;;;;19.72;49.61;100415.63;4901246;29;20029;-83
2021/07/29 12:08:42;;;;;;;8.75;2.95;;;;;;;19.61;50.85;100405.56;4904176;29;20448;-83
2021/07/29 12:11:09;;;;;;;3.80;1.80;;;;;;;19.67;50.73;100407.34;4905247;29;20103;-83
2021/07/29 12:13:39;;;;;;;4.05;1.42;;;;;;;19.82;51.59;100409.53;4905969;29;20025;-83
2021/07/29 12:16:04;;;;;;;4.70;1.50;;;;;;;20.00;50.75;100411.19;4903658;29;20036;-83
2021/07/29 12:18:30;;;;;;;5.25;1.70;;;;;;;20.00;50.11;100405.72;4901259;29;20065;-83
2021/07/29 12:20:56;;;;;;;4.22;1.20;;;;;;;20.09;49.35;100409.72;4880441;29;20028;-83
2021/07/29 12:23:23;;;;;;;3.70;1.60;;;;;;;20.14;48.53;100409.00;4903802;29;20044;-83
2021/07/29 12:25:49;;;;;;;2.83;1.20;;;;;;;20.03;49.25;100388.88;4887654;29;20032;-83
2021/07/29 12:28:15;;;;;;;4.20;1.42;;;;;;;20.17;49.66;100403.03;4907952;29;20048;-83
2021/07/29 12:30:43;;;;;;;3.78;1.50;;;;;;;20.21;48.84;100402.25;4891181;29;20043;-83
2021/07/29 12:33:19;;;;;;;7.32;1.63;;;;;;;20.25;49.14;100399.06;4902607;29;20893;-83
2021/07/29 12:36:04;;;;;;;5.07;1.80;;;;;;;20.17;47.68;100401.13;4903172;29;20061;-83
2021/07/29 12:38:37;;;;;;;3.63;1.45;;;;;;;20.08;47.95;100383.47;4894640;29;20090;-83
2021/07/29 12:41:04;;;;;;;2.80;1.38;;;;;;;20.27;47.62;100391.44;4906390;29;20605;-83
2021/07/29 12:43:31;;;;;;;3.97;2.15;;;;;;;20.56;47.52;100397.63;4901349;29;20044;-83
2021/07/29 12:46:07;;;;;;;6.63;1.50;;;;;;;20.90;47.27;100394.84;4905492;29;20482;-83
2021/07/29 12:48:51;;;;;;;11.82;6.80;;;;;;;;;;4902812;29;20036;-83
2021/07/29 12:51:32;;;;;;;6.03;1.88;;;;;;;21.27;46.84;100384.09;4898708;29;20020;-83
2021/07/29 12:53:58;;;;;;;4.53;1.70;;;;;;;21.57;45.79;100378.16;4897805;29;20044;-83
2021/07/29 12:56:23;;;;;;;4.05;1.50;;;;;;;21.68;45.59;100384.56;4928460;29;20099;-83
2021/07/29 12:58:49;;;;;;;9.50;3.95;;;;;;;21.49;44.14;100376.72;4901296;29;20133;-83
2021/07/29 13:01:17;;;;;;;10.90;7.32;;;;;;;21.70;44.26;100382.41;4895284;29;20545;-83
2021/07/29 13:03:46;;;;;;;12.95;6.68;;;;;;;21.80;43.26;100387.94;4927035;29;20033;-83
2021/07/29 13:06:12;;;;;;;4.20;1.42;;;;;;;21.34;43.44;100373.78;4901046;29;20048;-83
2021/07/29 13:08:37;;;;;;;5.10;1.52;;;;;;;21.17;45.51;100375.75;4904056;29;20024;-83
2021/07/29 13:11:03;;;;;;;5.18;1.60;;;;;;;20.85;48.14;100379.19;4887021;29;20032;-83
2021/07/29 13:13:31;;;;;;;4.63;1.30;;;;;;;21.19;47.79;100381.81;4898619;29;20042;-83
2021/07/29 13:15:57;;;;;;;6.95;3.95;;;;;;;22.07;45.97;100365.19;4891545;29;20048;-83
2021/07/29 13:18:23;;;;;;;2.75;1.50;;;;;;;22.71;44.61;100373.34;4906390;29;20020;-83
2021/07/29 13:20:49;;;;;;;4.18;1.38;;;;;;;22.50;43.68;100364.16;4903379;29;20663;-83
2021/07/29 13:23:16;;;;;;;3.63;1.50;;;;;;;22.68;43.76;100359.31;4898413;29;20482;-83
2021/07/29 13:25:44;;;;;;;2.15;1.27;;;;;;;23.27;43.31;100372.78;4880488;29;20081;-84
2021/07/29 13:28:09;;;;;;;3.08;1.55;;;;;;;23.64;42.90;100358.84;4901913;29;20025;-83
2021/07/29 13:30:35;;;;;;;5.13;1.60;;;;;;;24.00;41.50;100358.94;4890939;29;20535;-83
2021/07/29 13:33:00;;;;;;;7.93;2.45;;;;;;;23.57;40.58;100350.06;4909658;29;20032;-83
2021/07/29 13:35:25;;;;;;;3.28;1.35;;;;;;;23.61;40.64;100362.16;4875654;29;20032;-79
2021/07/29 13:37:53;;;;;;;3.05;1.60;;;;;;;23.32;40.79;100352.78;4871674;29;20429;-80
2021/07/29 13:40:19;;;;;;;3.33;1.40;;;;;;;23.10;40.78;100347.47;4875461;29;20096;-80
2021/07/29 13:42:49;;;;;;;9.43;2.17;;;;;;;22.56;41.69;100340.34;4920659;29;20443;-79
2021/07/29 13:45:20;;;;;;;3.03;1.60;;;;;;;22.13;43.08;100345.00;4917256;29;20508;-79
2021/07/29 13:47:53;;;;;;;6.25;1.63;;;;;;;21.76;44.18;100337.56;4896759;29;20067;-79
2021/07/29 13:50:19;;;;;;;3.53;1.60;;;;;;;21.45;44.87;100334.53;4882294;29;20048;-79
2021/07/29 13:52:46;;;;;;;4.10;1.83;;;;;;;21.06;46.02;100351.06;4895892;29;20465;-79
2021/07/29 13:55:12;;;;;;;3.88;1.90;;;;;;;20.78;47.50;100338.41;4897507;29;20454;-79
2021/07/29 13:57:38;;;;;;;4.75;1.73;;;;;;;20.69;47.63;100344.56;4885608;29;20028;-79
2021/07/29 14:00:05;;;;;;;5.03;1.67;;;;;;;20.77;47.18;100328.56;4891448;29;20489;-79